sensor_id;sensor_type;location;lat;lon;timestamp;pressure;altitude;pressure_sealevel;temperature;humidity
20228;BME280;12195;55.790;37.572;2022-10-31T00:01:59;98085.30;;;2.19;58.84
20228;BME280;12195;55.790;37.572;2022-10-31T00:04:31;98080.20;;;2.18;58.78
20228;BME280;12195;55.790;37.572;2022-10-31T00:07:03;98079.34;;;2.17;59.01
20228;BME280;12195;55.790;37.572;2022-10-31T00:09:35;98063.00;;;2.17;58.98
20228;BME280;12195;55.790;37.572;2022-10-31T00:12:08;98067.45;;;2.32;58.68
20228;BME280;12195;55.790;37.572;2022-10-31T00:14:40;98071.78;;;2.31;58.66
20228;BME280;12195;55.790;37.572;2022-10-31T00:17:11;98067.59;;;2.29;58.94
20228;BME280;12195;55.790;37.572;2022-10-31T00:19:44;98061.19;;;2.36;58.82
20228;BME280;12195;55.790;37.572;2022-10-31T00:22:16;98050.45;;;2.26;58.77
20228;BME280;12195;55.790;37.572;2022-10-31T00:24:47;98056.38;;;2.28;58.27
20228;BME280;12195;55.790;37.572;2022-10-31T00:27:19;98053.05;;;2.26;58.56
20228;BME280;12195;55.790;37.572;2022-10-31T00:29:51;98052.73;;;2.32;58.04
20228;BME280;12195;55.790;37.572;2022-10-31T00:32:23;98051.98;;;2.30;58.05
20228;BME280;12195;55.790;37.572;2022-10-31T00:34:55;98059.35;;;2.21;58.65
20228;BME280;12195;55.790;37.572;2022-10-31T00:37:28;98057.69;;;2.20;58.80
20228;BME280;12195;55.790;37.572;2022-10-31T00:40:00;98049.37;;;2.13;59.02
20228;BME280;12195;55.790;37.572;2022-10-31T00:42:33;98054.45;;;2.15;58.92
20228;BME280;12195;55.790;37.572;2022-10-31T00:45:05;98048.39;;;2.16;58.47
20228;BME280;12195;55.790;37.572;2022-10-31T00:47:38;98045.62;;;2.19;58.46
20228;BME280;12195;55.790;37.572;2022-10-31T00:50:10;98055.37;;;2.14;58.75
20228;BME280;12195;55.790;37.572;2022-10-31T00:52:42;98054.65;;;2.29;58.91
20228;BME280;12195;55.790;37.572;2022-10-31T00:55:14;98048.22;;;2.19;58.86
20228;BME280;12195;55.790;37.572;2022-10-31T00:57:49;98041.84;;;2.26;58.12
20228;BME280;12195;55.790;37.572;2022-10-31T01:00:21;98044.77;;;2.37;57.48
20228;BME280;12195;55.790;37.572;2022-10-31T01:02:53;98042.31;;;2.34;57.30
20228;BME280;12195;55.790;37.572;2022-10-31T01:05:25;98055.94;;;2.37;57.36
20228;BME280;12195;55.790;37.572;2022-10-31T01:07:58;98045.04;;;2.31;57.51
20228;BME280;12195;55.790;37.572;2022-10-31T01:10:30;98044.90;;;2.34;57.81
20228;BME280;12195;55.790;37.572;2022-10-31T01:13:02;98041.39;;;2.35;57.48
20228;BME280;12195;55.790;37.572;2022-10-31T01:15:34;98043.24;;;2.50;57.29
20228;BME280;12195;55.790;37.572;2022-10-31T01:18:07;98050.47;;;2.43;57.24
20228;BME280;12195;55.790;37.572;2022-10-31T01:20:39;98044.97;;;2.32;58.01
20228;BME280;12195;55.790;37.572;2022-10-31T01:23:11;98047.63;;;2.31;58.43
20228;BME280;12195;55.790;37.572;2022-10-31T01:25:43;98062.17;;;2.33;59.06
20228;BME280;12195;55.790;37.572;2022-10-31T01:28:15;98050.22;;;2.31;59.22
20228;BME280;12195;55.790;37.572;2022-10-31T01:30:47;98044.56;;;2.23;60.41
20228;BME280;12195;55.790;37.572;2022-10-31T01:33:19;98050.39;;;2.28;60.74
20228;BME280;12195;55.790;37.572;2022-10-31T01:35:51;98066.64;;;2.13;62.62
20228;BME280;12195;55.790;37.572;2022-10-31T01:38:23;98066.16;;;2.05;63.74
20228;BME280;12195;55.790;37.572;2022-10-31T01:40:56;98071.91;;;1.93;64.98
20228;BME280;12195;55.790;37.572;2022-10-31T01:43:58;98059.04;;;1.91;64.49
20228;BME280;12195;55.790;37.572;2022-10-31T01:46:35;98063.66;;;1.85;64.88
20228;BME280;12195;55.790;37.572;2022-10-31T01:49:13;98067.79;;;1.70;66.17
20228;BME280;12195;55.790;37.572;2022-10-31T01:51:48;98065.34;;;1.67;67.04
20228;BME280;12195;55.790;37.572;2022-10-31T01:54:22;98057.94;;;1.60;67.54
20228;BME280;12195;55.790;37.572;2022-10-31T01:56:56;98072.60;;;1.59;67.67
20228;BME280;12195;55.790;37.572;2022-10-31T01:59:29;98073.58;;;1.57;68.34
20228;BME280;12195;55.790;37.572;2022-10-31T02:02:03;98079.11;;;1.49;68.56
20228;BME280;12195;55.790;37.572;2022-10-31T02:04:35;98070.35;;;1.33;69.70
20228;BME280;12195;55.790;37.572;2022-10-31T02:07:13;98076.91;;;1.22;70.08
20228;BME280;12195;55.790;37.572;2022-10-31T02:09:46;98072.84;;;1.16;70.32
20228;BME280;12195;55.790;37.572;2022-10-31T02:12:19;98090.08;;;1.16;70.96
20228;BME280;12195;55.790;37.572;2022-10-31T02:14:52;98077.16;;;1.16;71.97
20228;BME280;12195;55.790;37.572;2022-10-31T02:17:24;98085.95;;;1.12;72.33
20228;BME280;12195;55.790;37.572;2022-10-31T02:20:12;98084.09;;;1.15;72.27
20228;BME280;12195;55.790;37.572;2022-10-31T02:29:02;98075.61;;;1.12;73.45
20228;BME280;12195;55.790;37.572;2022-10-31T02:37:09;98071.64;;;1.05;74.41
20228;BME280;12195;55.790;37.572;2022-10-31T02:42:24;98077.90;;;0.99;75.21
20228;BME280;12195;55.790;37.572;2022-10-31T02:45:11;98077.90;;;0.99;75.27
20228;BME280;12195;55.790;37.572;2022-10-31T02:47:42;98088.17;;;1.01;75.75
20228;BME280;12195;55.790;37.572;2022-10-31T02:52:54;98069.30;;;0.99;76.28
20228;BME280;12195;55.790;37.572;2022-10-31T02:58:12;98078.08;;;0.95;76.45
20228;BME280;12195;55.790;37.572;2022-10-31T03:12:13;98076.41;;;0.94;77.86
20228;BME280;12195;55.790;37.572;2022-10-31T03:15:04;98079.38;;;1.05;77.97
20228;BME280;12195;55.790;37.572;2022-10-31T03:17:27;98086.16;;;1.07;78.14
20228;BME280;12195;55.790;37.572;2022-10-31T03:20:01;98074.53;;;0.97;78.14
20228;BME280;12195;55.790;37.572;2022-10-31T03:22:36;98073.77;;;0.95;78.23
20228;BME280;12195;55.790;37.572;2022-10-31T03:25:10;98084.92;;;0.96;78.39
20228;BME280;12195;55.790;37.572;2022-10-31T03:27:44;98081.36;;;0.98;78.41
20228;BME280;12195;55.790;37.572;2022-10-31T03:30:18;98077.56;;;1.07;78.53
20228;BME280;12195;55.790;37.572;2022-10-31T03:32:51;98087.56;;;0.94;78.54
20228;BME280;12195;55.790;37.572;2022-10-31T03:35:26;98082.61;;;1.10;78.40
20228;BME280;12195;55.790;37.572;2022-10-31T03:38:00;98084.15;;;1.14;77.62
20228;BME280;12195;55.790;37.572;2022-10-31T03:40:37;98069.23;;;1.00;77.76
20228;BME280;12195;55.790;37.572;2022-10-31T03:43:13;98077.11;;;0.97;77.81
20228;BME280;12195;55.790;37.572;2022-10-31T03:45:46;98072.73;;;0.99;78.03
20228;BME280;12195;55.790;37.572;2022-10-31T03:48:20;98075.04;;;1.05;77.92
20228;BME280;12195;55.790;37.572;2022-10-31T03:53:52;98077.84;;;1.01;77.77
20228;BME280;12195;55.790;37.572;2022-10-31T03:59:16;98081.06;;;1.06;77.83
20228;BME280;12195;55.790;37.572;2022-10-31T04:01:51;98088.30;;;0.98;77.92
20228;BME280;12195;55.790;37.572;2022-10-31T04:04:24;98094.16;;;1.01;78.05
20228;BME280;12195;55.790;37.572;2022-10-31T04:06:58;98093.25;;;1.02;78.31
20228;BME280;12195;55.790;37.572;2022-10-31T04:09:35;98094.89;;;1.05;78.31
20228;BME280;12195;55.790;37.572;2022-10-31T04:12:09;98090.41;;;1.08;78.36
20228;BME280;12195;55.790;37.572;2022-10-31T04:14:56;98101.51;;;1.10;78.47
20228;BME280;12195;55.790;37.572;2022-10-31T04:17:29;98098.50;;;1.01;78.56
20228;BME280;12195;55.790;37.572;2022-10-31T04:20:02;98098.73;;;1.15;78.59
20228;BME280;12195;55.790;37.572;2022-10-31T04:22:36;98104.16;;;1.09;78.25
20228;BME280;12195;55.790;37.572;2022-10-31T04:25:08;98096.68;;;1.03;78.49
20228;BME280;12195;55.790;37.572;2022-10-31T04:27:40;98107.65;;;1.08;78.63
20228;BME280;12195;55.790;37.572;2022-10-31T04:30:13;98119.47;;;1.13;78.98
20228;BME280;12195;55.790;37.572;2022-10-31T04:32:45;98120.39;;;1.12;78.99
20228;BME280;12195;55.790;37.572;2022-10-31T04:35:17;98115.55;;;1.05;79.16
20228;BME280;12195;55.790;37.572;2022-10-31T04:37:49;98122.39;;;1.06;79.11
20228;BME280;12195;55.790;37.572;2022-10-31T04:40:22;98136.34;;;1.02;79.29
20228;BME280;12195;55.790;37.572;2022-10-31T04:43:05;98134.40;;;1.07;79.37
20228;BME280;12195;55.790;37.572;2022-10-31T04:45:37;98135.95;;;1.11;79.49
20228;BME280;12195;55.790;37.572;2022-10-31T04:48:10;98133.48;;;1.08;79.47
20228;BME280;12195;55.790;37.572;2022-10-31T04:50:44;98139.56;;;1.07;79.67
20228;BME280;12195;55.790;37.572;2022-10-31T04:53:17;98138.72;;;1.26;79.69
20228;BME280;12195;55.790;37.572;2022-10-31T04:55:51;98140.27;;;1.10;79.58
20228;BME280;12195;55.790;37.572;2022-10-31T04:58:24;98141.12;;;1.11;80.01
20228;BME280;12195;55.790;37.572;2022-10-31T05:00:57;98154.67;;;1.16;79.79
20228;BME280;12195;55.790;37.572;2022-10-31T05:03:29;98145.25;;;1.15;79.83
20228;BME280;12195;55.790;37.572;2022-10-31T05:06:01;98142.48;;;1.19;80.05
20228;BME280;12195;55.790;37.572;2022-10-31T05:08:34;98153.12;;;1.32;80.08
20228;BME280;12195;55.790;37.572;2022-10-31T05:11:07;98168.12;;;1.24;80.19
20228;BME280;12195;55.790;37.572;2022-10-31T05:13:40;98165.41;;;1.27;80.09
20228;BME280;12195;55.790;37.572;2022-10-31T05:16:17;98154.22;;;1.26;80.21
20228;BME280;12195;55.790;37.572;2022-10-31T05:19:06;98167.72;;;1.33;79.98
20228;BME280;12195;55.790;37.572;2022-10-31T05:21:56;98164.95;;;1.37;79.81
20228;BME280;12195;55.790;37.572;2022-10-31T05:24:28;98191.95;;;1.50;79.83
20228;BME280;12195;55.790;37.572;2022-10-31T05:27:02;98181.44;;;1.35;79.83
20228;BME280;12195;55.790;37.572;2022-10-31T05:29:34;98191.44;;;1.42;80.08
20228;BME280;12195;55.790;37.572;2022-10-31T05:32:06;98202.75;;;1.40;79.81
20228;BME280;12195;55.790;37.572;2022-10-31T05:34:58;98187.24;;;1.40;80.01
20228;BME280;12195;55.790;37.572;2022-10-31T05:37:41;98213.80;;;1.43;80.10
20228;BME280;12195;55.790;37.572;2022-10-31T05:40:15;98202.57;;;1.44;80.51
20228;BME280;12195;55.790;37.572;2022-10-31T05:42:50;98212.76;;;1.47;80.53
20228;BME280;12195;55.790;37.572;2022-10-31T05:45:23;98218.66;;;1.51;80.57
20228;BME280;12195;55.790;37.572;2022-10-31T05:47:59;98218.39;;;1.57;80.77
20228;BME280;12195;55.790;37.572;2022-10-31T05:50:50;98230.55;;;1.75;80.45
20228;BME280;12195;55.790;37.572;2022-10-31T05:53:23;98231.02;;;1.64;80.11
20228;BME280;12195;55.790;37.572;2022-10-31T05:55:55;98243.15;;;1.62;80.27
20228;BME280;12195;55.790;37.572;2022-10-31T05:58:28;98228.27;;;1.67;80.03
20228;BME280;12195;55.790;37.572;2022-10-31T06:01:04;98248.84;;;1.70;80.08
20228;BME280;12195;55.790;37.572;2022-10-31T06:03:36;98247.11;;;1.71;80.22
20228;BME280;12195;55.790;37.572;2022-10-31T06:06:10;98259.95;;;1.72;80.18
20228;BME280;12195;55.790;37.572;2022-10-31T06:08:43;98276.31;;;1.73;80.56
20228;BME280;12195;55.790;37.572;2022-10-31T06:11:17;98284.87;;;1.75;80.32
20228;BME280;12195;55.790;37.572;2022-10-31T06:14:06;98288.09;;;1.80;80.42
20228;BME280;12195;55.790;37.572;2022-10-31T06:16:55;98290.47;;;1.84;80.26
20228;BME280;12195;55.790;37.572;2022-10-31T06:19:45;98287.06;;;1.84;80.30
20228;BME280;12195;55.790;37.572;2022-10-31T06:22:19;98287.70;;;1.89;80.16
20228;BME280;12195;55.790;37.572;2022-10-31T06:24:51;98298.38;;;2.01;80.14
20228;BME280;12195;55.790;37.572;2022-10-31T06:27:31;98311.50;;;1.97;80.10
20228;BME280;12195;55.790;37.572;2022-10-31T06:30:06;98316.48;;;2.01;79.91
20228;BME280;12195;55.790;37.572;2022-10-31T06:32:39;98329.15;;;2.07;79.86
20228;BME280;12195;55.790;37.572;2022-10-31T06:35:12;98348.88;;;2.10;79.77
20228;BME280;12195;55.790;37.572;2022-10-31T06:37:53;98349.86;;;2.07;79.55
20228;BME280;12195;55.790;37.572;2022-10-31T06:40:33;98341.91;;;2.12;79.93
20228;BME280;12195;55.790;37.572;2022-10-31T06:43:13;98353.30;;;2.08;79.82
20228;BME280;12195;55.790;37.572;2022-10-31T06:45:46;98364.98;;;2.16;79.77
20228;BME280;12195;55.790;37.572;2022-10-31T06:48:26;98367.33;;;2.22;79.62
20228;BME280;12195;55.790;37.572;2022-10-31T06:51:00;98375.03;;;2.24;79.62
20228;BME280;12195;55.790;37.572;2022-10-31T06:53:34;98365.20;;;2.32;79.21
20228;BME280;12195;55.790;37.572;2022-10-31T06:56:07;98379.81;;;2.33;79.34
20228;BME280;12195;55.790;37.572;2022-10-31T06:58:40;98381.20;;;2.40;79.47
20228;BME280;12195;55.790;37.572;2022-10-31T07:01:13;98397.01;;;2.54;79.33
20228;BME280;12195;55.790;37.572;2022-10-31T07:03:46;98392.27;;;2.63;79.34
20228;BME280;12195;55.790;37.572;2022-10-31T07:06:19;98397.30;;;2.66;79.23
20228;BME280;12195;55.790;37.572;2022-10-31T07:08:51;98408.45;;;2.68;79.23
20228;BME280;12195;55.790;37.572;2022-10-31T07:11:23;98422.16;;;2.70;79.14
20228;BME280;12195;55.790;37.572;2022-10-31T07:13:56;98424.63;;;2.73;79.30
20228;BME280;12195;55.790;37.572;2022-10-31T07:16:29;98438.37;;;2.75;79.18
20228;BME280;12195;55.790;37.572;2022-10-31T07:19:01;98445.80;;;2.83;79.42
20228;BME280;12195;55.790;37.572;2022-10-31T07:21:34;98437.73;;;2.89;79.01
20228;BME280;12195;55.790;37.572;2022-10-31T07:24:06;98436.00;;;2.89;79.04
20228;BME280;12195;55.790;37.572;2022-10-31T07:26:46;98455.75;;;2.92;78.64
20228;BME280;12195;55.790;37.572;2022-10-31T07:29:20;98460.11;;;2.91;78.75
20228;BME280;12195;55.790;37.572;2022-10-31T07:31:52;98467.95;;;2.90;78.83
20228;BME280;12195;55.790;37.572;2022-10-31T07:34:26;98479.59;;;3.00;78.88
20228;BME280;12195;55.790;37.572;2022-10-31T07:37:00;98491.63;;;3.01;78.40
20228;BME280;12195;55.790;37.572;2022-10-31T07:39:32;98493.59;;;2.96;78.59
20228;BME280;12195;55.790;37.572;2022-10-31T07:42:05;98512.52;;;2.98;78.43
20228;BME280;12195;55.790;37.572;2022-10-31T07:44:38;98514.33;;;2.96;78.65
20228;BME280;12195;55.790;37.572;2022-10-31T07:47:29;98531.55;;;2.97;78.76
20228;BME280;12195;55.790;37.572;2022-10-31T07:50:14;98525.03;;;2.88;79.07
20228;BME280;12195;55.790;37.572;2022-10-31T07:53:07;98546.80;;;2.84;79.32
20228;BME280;12195;55.790;37.572;2022-10-31T07:55:51;98544.09;;;2.87;79.48
20228;BME280;12195;55.790;37.572;2022-10-31T07:58:23;98542.08;;;2.94;79.69
20228;BME280;12195;55.790;37.572;2022-10-31T08:00:57;98549.85;;;2.94;79.59
20228;BME280;12195;55.790;37.572;2022-10-31T08:03:31;98551.65;;;2.92;79.75
20228;BME280;12195;55.790;37.572;2022-10-31T08:06:14;98550.48;;;2.99;80.19
20228;BME280;12195;55.790;37.572;2022-10-31T08:08:48;98552.43;;;3.14;79.67
20228;BME280;12195;55.790;37.572;2022-10-31T08:11:20;98554.45;;;3.26;79.52
20228;BME280;12195;55.790;37.572;2022-10-31T08:13:52;98567.55;;;3.43;79.28
20228;BME280;12195;55.790;37.572;2022-10-31T08:16:26;98565.23;;;3.55;78.90
20228;BME280;12195;55.790;37.572;2022-10-31T08:19:01;98575.30;;;3.63;78.26
20228;BME280;12195;55.790;37.572;2022-10-31T08:21:36;98577.47;;;3.72;77.99
20228;BME280;12195;55.790;37.572;2022-10-31T08:24:10;98584.04;;;3.79;77.82
20228;BME280;12195;55.790;37.572;2022-10-31T08:26:42;98586.38;;;3.85;76.85
20228;BME280;12195;55.790;37.572;2022-10-31T08:29:15;98589.46;;;3.93;76.32
20228;BME280;12195;55.790;37.572;2022-10-31T08:31:48;98601.03;;;4.04;76.21
20228;BME280;12195;55.790;37.572;2022-10-31T08:34:40;98613.52;;;4.15;75.77
20228;BME280;12195;55.790;37.572;2022-10-31T08:37:31;98607.75;;;4.27;74.81
20228;BME280;12195;55.790;37.572;2022-10-31T08:40:06;98605.02;;;4.30;74.44
20228;BME280;12195;55.790;37.572;2022-10-31T08:42:39;98649.66;;;4.38;73.86
20228;BME280;12195;55.790;37.572;2022-10-31T08:45:11;98635.88;;;4.36;73.71
20228;BME280;12195;55.790;37.572;2022-10-31T08:47:44;98639.13;;;4.41;73.17
20228;BME280;12195;55.790;37.572;2022-10-31T08:50:16;98640.81;;;4.42;72.39
20228;BME280;12195;55.790;37.572;2022-10-31T08:52:49;98652.67;;;4.47;71.87
20228;BME280;12195;55.790;37.572;2022-10-31T08:55:22;98643.66;;;4.54;71.04
20228;BME280;12195;55.790;37.572;2022-10-31T08:58:07;98631.38;;;4.58;70.27
20228;BME280;12195;55.790;37.572;2022-10-31T09:00:42;98640.84;;;4.59;69.91
20228;BME280;12195;55.790;37.572;2022-10-31T09:03:18;98646.80;;;4.61;69.65
20228;BME280;12195;55.790;37.572;2022-10-31T09:05:54;98655.08;;;4.69;69.43
20228;BME280;12195;55.790;37.572;2022-10-31T09:08:25;98665.20;;;4.75;67.66
20228;BME280;12195;55.790;37.572;2022-10-31T09:10:58;98655.86;;;4.71;67.15
20228;BME280;12195;55.790;37.572;2022-10-31T09:13:47;98675.59;;;4.75;66.40
20228;BME280;12195;55.790;37.572;2022-10-31T09:16:36;98662.53;;;4.76;65.80
20228;BME280;12195;55.790;37.572;2022-10-31T09:19:10;98672.62;;;4.82;65.01
20228;BME280;12195;55.790;37.572;2022-10-31T09:21:44;98678.43;;;4.87;64.04
20228;BME280;12195;55.790;37.572;2022-10-31T09:24:16;98666.59;;;4.82;63.29
20228;BME280;12195;55.790;37.572;2022-10-31T09:26:48;98693.21;;;4.87;63.69
20228;BME280;12195;55.790;37.572;2022-10-31T09:29:31;98680.20;;;4.87;63.00
20228;BME280;12195;55.790;37.572;2022-10-31T09:32:05;98669.02;;;4.85;62.73
20228;BME280;12195;55.790;37.572;2022-10-31T09:34:38;98682.09;;;4.83;63.28
20228;BME280;12195;55.790;37.572;2022-10-31T09:37:14;98689.63;;;5.06;63.44
20228;BME280;12195;55.790;37.572;2022-10-31T09:39:46;98696.49;;;4.90;62.77
20228;BME280;12195;55.790;37.572;2022-10-31T09:42:54;98693.16;;;5.05;63.01
20228;BME280;12195;55.790;37.572;2022-10-31T09:51:50;98726.39;;;5.34;61.82
20228;BME280;12195;55.790;37.572;2022-10-31T09:54:35;98743.45;;;5.23;61.92
20228;BME280;12195;55.790;37.572;2022-10-31T09:57:10;98738.20;;;5.06;62.56
20228;BME280;12195;55.790;37.572;2022-10-31T09:59:44;98729.27;;;5.11;63.35
20228;BME280;12195;55.790;37.572;2022-10-31T10:02:37;98749.14;;;5.31;63.49
20228;BME280;12195;55.790;37.572;2022-10-31T10:05:13;98759.84;;;5.42;63.31
20228;BME280;12195;55.790;37.572;2022-10-31T10:07:55;98774.16;;;5.33;64.25
20228;BME280;12195;55.790;37.572;2022-10-31T10:10:39;98787.45;;;5.27;64.93
20228;BME280;12195;55.790;37.572;2022-10-31T10:20:03;98794.22;;;5.48;64.65
20228;BME280;12195;55.790;37.572;2022-10-31T10:22:31;98797.88;;;5.44;64.29
20228;BME280;12195;55.790;37.572;2022-10-31T10:28:15;98807.79;;;5.19;64.94
20228;BME280;12195;55.790;37.572;2022-10-31T10:30:47;98824.83;;;5.08;66.53
20228;BME280;12195;55.790;37.572;2022-10-31T10:36:00;98816.93;;;5.28;66.93
20228;BME280;12195;55.790;37.572;2022-10-31T10:39:15;98817.03;;;5.43;65.81
20228;BME280;12195;55.790;37.572;2022-10-31T10:41:34;98825.52;;;5.47;65.37
20228;BME280;12195;55.790;37.572;2022-10-31T10:44:08;98820.04;;;5.53;64.09
20228;BME280;12195;55.790;37.572;2022-10-31T10:46:45;98813.77;;;5.57;63.97
20228;BME280;12195;55.790;37.572;2022-10-31T10:49:39;98823.58;;;5.69;63.00
20228;BME280;12195;55.790;37.572;2022-10-31T10:55:09;98801.85;;;5.87;63.18
20228;BME280;12195;55.790;37.572;2022-10-31T10:58:02;98802.16;;;5.98;63.72
20228;BME280;12195;55.790;37.572;2022-10-31T11:00:43;98801.62;;;6.09;63.04
20228;BME280;12195;55.790;37.572;2022-10-31T11:03:20;98813.34;;;6.17;63.24
20228;BME280;12195;55.790;37.572;2022-10-31T11:05:56;98805.30;;;6.05;63.45
20228;BME280;12195;55.790;37.572;2022-10-31T11:08:35;98801.02;;;6.04;64.05
20228;BME280;12195;55.790;37.572;2022-10-31T11:13:49;98802.36;;;5.59;63.64
20228;BME280;12195;55.790;37.572;2022-10-31T11:19:19;98818.19;;;5.55;65.58
20228;BME280;12195;55.790;37.572;2022-10-31T11:21:50;98822.23;;;5.43;64.66
20228;BME280;12195;55.790;37.572;2022-10-31T11:24:25;98834.39;;;5.43;64.42
20228;BME280;12195;55.790;37.572;2022-10-31T11:29:45;98820.70;;;5.39;64.29
20228;BME280;12195;55.790;37.572;2022-10-31T11:32:24;98841.27;;;5.27;64.44
20228;BME280;12195;55.790;37.572;2022-10-31T11:35:00;98828.47;;;5.22;64.28
20228;BME280;12195;55.790;37.572;2022-10-31T11:37:35;98844.85;;;5.06;64.44
20228;BME280;12195;55.790;37.572;2022-10-31T11:40:24;98836.66;;;4.96;64.69
20228;BME280;12195;55.790;37.572;2022-10-31T11:42:50;98839.75;;;4.86;65.38
20228;BME280;12195;55.790;37.572;2022-10-31T11:45:35;98855.42;;;4.84;65.69
20228;BME280;12195;55.790;37.572;2022-10-31T11:48:01;98850.34;;;4.81;65.70
20228;BME280;12195;55.790;37.572;2022-10-31T11:50:40;98842.68;;;4.78;65.65
20228;BME280;12195;55.790;37.572;2022-10-31T11:53:17;98838.46;;;4.76;65.86
20228;BME280;12195;55.790;37.572;2022-10-31T11:56:02;98854.06;;;4.76;66.09
20228;BME280;12195;55.790;37.572;2022-10-31T11:58:34;98856.03;;;4.71;66.12
20228;BME280;12195;55.790;37.572;2022-10-31T12:01:08;98858.70;;;4.69;66.12
20228;BME280;12195;55.790;37.572;2022-10-31T12:04:09;98852.58;;;4.70;66.22
20228;BME280;12195;55.790;37.572;2022-10-31T12:06:28;98846.75;;;4.65;65.83
20228;BME280;12195;55.790;37.572;2022-10-31T12:08:56;98842.53;;;4.63;66.08
20228;BME280;12195;55.790;37.572;2022-10-31T12:11:38;98851.31;;;4.60;66.40
20228;BME280;12195;55.790;37.572;2022-10-31T12:14:27;98866.05;;;4.60;66.47
20228;BME280;12195;55.790;37.572;2022-10-31T12:16:59;98873.22;;;4.55;67.14
20228;BME280;12195;55.790;37.572;2022-10-31T12:22:14;98867.32;;;4.51;67.55
20228;BME280;12195;55.790;37.572;2022-10-31T12:28:04;98861.45;;;4.46;67.98
20228;BME280;12195;55.790;37.572;2022-10-31T12:36:49;98883.16;;;4.45;70.00
20228;BME280;12195;55.790;37.572;2022-10-31T12:39:24;98877.33;;;4.40;69.69
20228;BME280;12195;55.790;37.572;2022-10-31T12:45:07;98871.38;;;4.18;70.85
20228;BME280;12195;55.790;37.572;2022-10-31T12:59:19;98893.77;;;4.21;72.13
20228;BME280;12195;55.790;37.572;2022-10-31T13:02:09;98887.60;;;4.23;71.43
20228;BME280;12195;55.790;37.572;2022-10-31T13:07:29;98916.77;;;4.30;70.82
20228;BME280;12195;55.790;37.572;2022-10-31T13:10:04;98903.83;;;4.28;71.13
20228;BME280;12195;55.790;37.572;2022-10-31T13:12:35;98914.10;;;4.31;70.79
20228;BME280;12195;55.790;37.572;2022-10-31T13:15:27;98916.64;;;4.33;70.66
20228;BME280;12195;55.790;37.572;2022-10-31T13:17:53;98929.69;;;4.31;70.95
20228;BME280;12195;55.790;37.572;2022-10-31T13:20:29;98930.22;;;4.39;70.86
20228;BME280;12195;55.790;37.572;2022-10-31T13:23:19;98928.72;;;4.34;70.86
20228;BME280;12195;55.790;37.572;2022-10-31T13:25:53;98929.48;;;4.36;71.15
20228;BME280;12195;55.790;37.572;2022-10-31T13:31:08;98935.20;;;4.44;70.83
20228;BME280;12195;55.790;37.572;2022-10-31T13:36:39;98934.31;;;4.45;70.40
20228;BME280;12195;55.790;37.572;2022-10-31T13:42:12;98956.11;;;4.61;70.44
20228;BME280;12195;55.790;37.572;2022-10-31T13:44:43;98933.05;;;4.53;69.82
20228;BME280;12195;55.790;37.572;2022-10-31T13:47:24;98948.71;;;4.52;69.71
20228;BME280;12195;55.790;37.572;2022-10-31T13:50:20;98959.69;;;4.58;69.61
20228;BME280;12195;55.790;37.572;2022-10-31T13:53:10;98959.96;;;4.52;69.43
20228;BME280;12195;55.790;37.572;2022-10-31T13:55:48;98968.59;;;4.53;69.55
20228;BME280;12195;55.790;37.572;2022-10-31T13:58:34;98966.31;;;4.85;76.05
20228;BME280;12195;55.790;37.572;2022-10-31T14:01:20;98971.27;;;5.10;70.92
20228;BME280;12195;55.790;37.572;2022-10-31T14:03:59;98975.03;;;5.23;70.36
20228;BME280;12195;55.790;37.572;2022-10-31T14:06:52;98972.91;;;5.12;69.58
20228;BME280;12195;55.790;37.572;2022-10-31T14:09:50;98972.59;;;5.00;69.55
20228;BME280;12195;55.790;37.572;2022-10-31T14:12:30;98983.98;;;4.97;69.40
20228;BME280;12195;55.790;37.572;2022-10-31T14:18:04;98978.05;;;4.94;69.05
20228;BME280;12195;55.790;37.572;2022-10-31T14:20:39;98983.14;;;4.77;69.10
20228;BME280;12195;55.790;37.572;2022-10-31T14:26:30;98990.24;;;4.73;68.92
20228;BME280;12195;55.790;37.572;2022-10-31T14:28:58;98984.19;;;4.73;68.60
20228;BME280;12195;55.790;37.572;2022-10-31T14:31:35;98989.54;;;4.70;69.08
20228;BME280;12195;55.790;37.572;2022-10-31T14:34:34;99006.36;;;4.61;69.19
20228;BME280;12195;55.790;37.572;2022-10-31T14:37:24;99007.98;;;4.64;68.80
20228;BME280;12195;55.790;37.572;2022-10-31T14:51:57;99037.94;;;4.52;69.71
20228;BME280;12195;55.790;37.572;2022-10-31T14:53:58;99034.69;;;4.47;69.89
20228;BME280;12195;55.790;37.572;2022-10-31T14:56:33;99051.58;;;4.57;69.16
20228;BME280;12195;55.790;37.572;2022-10-31T14:59:15;99044.43;;;4.62;68.28
20228;BME280;12195;55.790;37.572;2022-10-31T15:01:59;99028.52;;;4.50;68.35
20228;BME280;12195;55.790;37.572;2022-10-31T15:04:34;99044.88;;;4.52;68.41
20228;BME280;12195;55.790;37.572;2022-10-31T15:07:23;99036.55;;;4.44;69.07
20228;BME280;12195;55.790;37.572;2022-10-31T15:10:03;99053.91;;;4.43;68.91
20228;BME280;12195;55.790;37.572;2022-10-31T15:12:36;99053.70;;;4.48;68.67
20228;BME280;12195;55.790;37.572;2022-10-31T15:15:13;99060.37;;;4.33;69.50
20228;BME280;12195;55.790;37.572;2022-10-31T15:17:57;99073.24;;;4.36;69.67
20228;BME280;12195;55.790;37.572;2022-10-31T15:20:30;99074.93;;;4.37;69.36
20228;BME280;12195;55.790;37.572;2022-10-31T15:23:03;99074.33;;;4.52;68.88
20228;BME280;12195;55.790;37.572;2022-10-31T15:25:35;99087.20;;;4.34;68.87
20228;BME280;12195;55.790;37.572;2022-10-31T15:28:15;99121.81;;;4.34;69.17
20228;BME280;12195;55.790;37.572;2022-10-31T15:30:56;99087.63;;;4.23;69.76
20228;BME280;12195;55.790;37.572;2022-10-31T15:33:39;99087.63;;;4.23;69.84
20228;BME280;12195;55.790;37.572;2022-10-31T15:36:05;99104.80;;;4.27;69.82
20228;BME280;12195;55.790;37.572;2022-10-31T15:38:37;99100.31;;;4.31;69.45
20228;BME280;12195;55.790;37.572;2022-10-31T15:44:13;99107.55;;;4.23;69.89
20228;BME280;12195;55.790;37.572;2022-10-31T15:46:41;99120.74;;;4.18;69.93
20228;BME280;12195;55.790;37.572;2022-10-31T15:49:35;99119.99;;;4.15;69.88
20228;BME280;12195;55.790;37.572;2022-10-31T15:55:26;99114.85;;;4.13;69.70
20228;BME280;12195;55.790;37.572;2022-10-31T15:57:48;99118.61;;;4.06;70.32